Time;durP1;ratioP1;P1;durP2;ratioP2;P2;SDS_P1;SDS_P2;PMS_P1;PMS_P2;Temp;Humidity;BMP_temperature;BMP_pressure;BME280_temperature;BME280_humidity;BME280_pressure;Samples;Min_cycle;Max_cycle;Signal;HPM_P1;HPM_P2
2021/11/14 00:01:03;;;;;;;1.08;1.05;;;7.00;99.90;;;;;;4364048;32;20219;-68
2021/11/14 00:03:30;;;;;;;7.75;2.72;;;7.10;99.90;;;;;;4361734;32;20067;-67
2021/11/14 00:05:55;;;;;;;0.95;0.95;;;7.10;99.90;;;;;;4363282;32;20184;-67
2021/11/14 00:08:21;;;;;;;1.60;1.45;;;7.10;99.90;;;;;;4361354;32;20215;-67
2021/11/14 00:10:52;;;;;;;2.62;1.60;;;7.10;99.90;;;;;;4367468;32;20183;-66
2021/11/14 00:13:18;;;;;;;1.27;1.00;;;7.20;99.90;;;;;;4366055;32;20489;-67
2021/11/14 00:15:44;;;;;;;2.95;2.08;;;7.20;99.90;;;;;;4367016;32;20063;-66
2021/11/14 00:18:10;;;;;;;8.07;1.48;;;7.10;99.90;;;;;;4362664;32;20140;-66
2021/11/14 00:20:36;;;;;;;8.05;2.35;;;7.20;99.90;;;;;;4367012;32;20078;-67
2021/11/14 00:23:02;;;;;;;1.67;1.58;;;7.30;99.90;;;;;;4362078;32;20114;-67
2021/11/14 00:25:28;;;;;;;9.80;2.37;;;7.30;99.90;;;;;;4364160;32;20082;-67
2021/11/14 00:27:54;;;;;;;2.08;1.42;;;7.20;99.90;;;;;;4358392;32;20427;-67
2021/11/14 00:30:20;;;;;;;8.60;2.60;;;7.20;99.90;;;;;;4360578;32;20067;-67
2021/11/14 00:32:46;;;;;;;1.37;1.27;;;7.30;99.90;;;;;;4370124;32;20536;-67
2021/11/14 00:35:13;;;;;;;0.70;0.70;;;7.30;99.90;;;;;;4351228;32;20134;-67
2021/11/14 00:37:39;;;;;;;4.12;2.00;;;7.20;99.90;;;;;;4368939;32;20413;-67
2021/11/14 00:40:10;;;;;;;0.60;0.60;;;7.30;99.90;;;;;;4367373;32;20169;-67
2021/11/14 00:42:36;;;;;;;36.17;2.87;;;7.30;99.90;;;;;;4367538;32;20542;-67
2021/11/14 00:45:02;;;;;;;6.05;2.42;;;7.30;99.90;;;;;;4366605;32;20086;-66
2021/11/14 00:47:27;;;;;;;4.50;1.62;;;7.40;99.90;;;;;;4364357;32;20070;-67
2021/11/14 00:49:53;;;;;;;4.00;1.10;;;7.40;99.90;;;;;;4364351;32;20476;-68
2021/11/14 00:52:19;;;;;;;1.20;1.10;;;7.40;99.90;;;;;;4371821;32;20367;-67
2021/11/14 00:54:44;;;;;;;1.40;1.25;;;7.30;99.90;;;;;;4366636;32;20418;-67
2021/11/14 00:57:10;;;;;;;2.20;1.70;;;7.20;99.90;;;;;;4364231;32;20411;-67
2021/11/14 00:59:35;;;;;;;1.83;1.65;;;7.10;99.90;;;;;;4363032;32;20157;-66
2021/11/14 01:02:01;;;;;;;1.62;1.37;;;7.10;99.90;;;;;;4367781;32;20067;-66
2021/11/14 01:04:26;;;;;;;1.55;1.45;;;7.20;99.90;;;;;;4371513;32;20070;-66
2021/11/14 01:06:52;;;;;;;1.70;1.25;;;7.20;99.90;;;;;;4369308;32;20153;-68
2021/11/14 01:09:17;;;;;;;2.60;1.95;;;7.10;99.90;;;;;;4372098;32;20099;-66
2021/11/14 01:11:43;;;;;;;3.00;1.50;;;7.10;99.90;;;;;;4372052;32;20063;-67
2021/11/14 01:14:09;;;;;;;3.50;1.45;;;7.20;99.90;;;;;;4359093;32;20095;-67
2021/11/14 01:16:34;;;;;;;1.83;1.20;;;7.20;99.90;;;;;;4362111;32;20070;-66
2021/11/14 01:19:00;;;;;;;4.07;1.58;;;7.20;99.90;;;;;;4361232;32;20095;-67
2021/11/14 01:21:28;;;;;;;4.37;1.62;;;7.20;99.90;;;;;;4363626;32;20063;-67
2021/11/14 01:23:55;;;;;;;1.27;1.17;;;7.20;99.90;;;;;;4368929;32;20082;-67
2021/11/14 01:26:21;;;;;;;1.55;1.20;;;7.20;99.90;;;;;;4363720;32;20064;-67
2021/11/14 01:28:48;;;;;;;1.08;0.80;;;7.30;99.90;;;;;;4364988;32;20098;-67
2021/11/14 01:31:14;;;;;;;2.62;1.30;;;7.30;99.90;;;;;;4365833;32;20502;-67
2021/11/14 01:33:39;;;;;;;2.28;1.37;;;7.20;99.90;;;;;;4362976;32;20074;-67
2021/11/14 01:36:05;;;;;;;2.55;1.50;;;7.20;99.90;;;;;;4375850;32;20086;-66
2021/11/14 01:38:31;;;;;;;4.05;1.77;;;7.20;99.90;;;;;;4371819;32;20464;-66
2021/11/14 01:41:04;;;;;;;2.20;1.10;;;7.10;99.90;;;;;;4368684;32;20498;-67
2021/11/14 01:43:38;;;;;;;2.78;1.37;;;7.20;99.90;;;;;;4371098;32;20497;-66
2021/11/14 01:46:04;;;;;;;1.45;1.35;;;7.20;99.90;;;;;;4362951;32;20423;-66
2021/11/14 01:48:30;;;;;;;1.92;1.42;;;7.30;99.90;;;;;;4358473;32;20087;-67
2021/11/14 01:50:57;;;;;;;1.75;1.55;;;7.30;99.90;;;;;;4365404;32;20074;-67
2021/11/14 01:53:24;;;;;;;1.30;1.20;;;7.50;99.90;;;;;;4364642;32;20525;-67
2021/11/14 01:55:50;;;;;;;1.52;1.12;;;7.50;99.90;;;;;;4371059;32;20103;-67
2021/11/14 01:58:19;;;;;;;1.33;0.90;;;7.50;99.90;;;;;;4360611;32;20067;-66
2021/11/14 02:00:51;;;;;;;2.50;1.40;;;7.40;99.90;;;;;;4361972;32;20504;-66
2021/11/14 02:03:17;;;;;;;0.88;0.82;;;7.40;99.90;;;;;;4363419;32;20066;-66
2021/11/14 02:05:44;;;;;;;2.50;1.67;;;7.30;99.90;;;;;;4368859;32;20110;-66
2021/11/14 02:08:10;;;;;;;1.55;1.33;;;7.40;99.90;;;;;;4364135;32;20310;-67
2021/11/14 02:10:37;;;;;;;2.90;1.73;;;7.40;99.90;;;;;;4363680;32;20149;-66
2021/11/14 02:13:07;;;;;;;6.97;2.17;;;7.40;99.90;;;;;;4367813;32;20116;-66
2021/11/14 02:15:33;;;;;;;2.72;1.45;;;7.50;99.90;;;;;;4360539;32;20535;-66
2021/11/14 02:17:59;;;;;;;1.17;1.08;;;7.40;99.90;;;;;;4370624;32;20231;-66
2021/11/14 02:20:25;;;;;;;1.23;1.12;;;7.40;99.90;;;;;;4367777;32;20087;-67
2021/11/14 02:22:51;;;;;;;4.50;2.00;;;7.40;99.90;;;;;;4368254;32;20098;-67
2021/11/14 02:25:19;;;;;;;1.20;1.10;;;7.40;99.90;;;;;;4367383;32;20074;-67
2021/11/14 02:27:45;;;;;;;24.70;2.53;;;7.50;99.90;;;;;;4363418;32;20071;-66
2021/11/14 02:30:13;;;;;;;2.85;1.90;;;7.60;99.90;;;;;;4365821;32;20132;-66
2021/11/14 02:32:40;;;;;;;3.65;2.10;;;7.50;99.90;;;;;;4365620;32;20071;-67
2021/11/14 02:35:06;;;;;;;2.55;1.75;;;7.40;99.90;;;;;;4358780;32;20071;-66
2021/11/14 02:37:32;;;;;;;1.12;0.95;;;7.30;99.90;;;;;;4365928;32;20496;-67
2021/11/14 02:39:58;;;;;;;1.77;1.08;;;7.30;99.90;;;;;;4365894;32;20087;-67
2021/11/14 02:42:24;;;;;;;1.48;1.30;;;7.30;99.90;;;;;;4363487;32;20090;-68
2021/11/14 02:44:50;;;;;;;2.20;1.15;;;7.30;99.90;;;;;;4369705;32;20127;-67
2021/11/14 02:47:15;;;;;;;1.10;1.05;;;7.40;99.90;;;;;;4362328;32;20099;-66
2021/11/14 02:49:41;;;;;;;2.37;1.30;;;7.40;99.90;;;;;;4361382;32;20078;-66
2021/11/14 02:52:06;;;;;;;1.60;1.20;;;7.30;99.90;;;;;;4363505;32;20083;-67
2021/11/14 02:54:32;;;;;;;1.60;1.30;;;7.40;99.90;;;;;;4367526;32;20555;-67
2021/11/14 02:56:58;;;;;;;8.30;3.00;;;7.40;99.90;;;;;;4361276;32;20075;-67
2021/11/14 02:59:24;;;;;;;1.20;1.08;;;7.40;99.90;;;;;;4365391;32;20132;-66
2021/11/14 03:01:54;;;;;;;3.37;2.12;;;7.40;99.90;;;;;;4367339;32;20543;-66
2021/11/14 03:04:23;;;;;;;1.35;1.25;;;7.50;99.90;;;;;;4363862;32;20071;-67
2021/11/14 03:06:52;;;;;;;4.85;1.45;;;7.60;99.90;;;;;;4360596;32;20079;-67
2021/11/14 03:09:18;;;;;;;4.20;2.03;;;7.60;99.90;;;;;;4361222;32;20054;-67
2021/11/14 03:11:44;;;;;;;1.52;1.42;;;7.60;99.90;;;;;;4359107;32;20083;-66
2021/11/14 03:14:10;;;;;;;4.10;1.58;;;7.60;99.90;;;;;;4365541;32;20071;-66
2021/11/14 03:16:36;;;;;;;3.20;1.73;;;7.60;99.90;;;;;;4366567;32;20090;-66
2021/11/14 03:19:02;;;;;;;3.85;2.05;;;7.60;99.90;;;;;;4365005;32;20376;-67
2021/11/14 03:21:28;;;;;;;5.28;1.60;;;7.60;99.90;;;;;;4360887;32;20067;-66
2021/11/14 03:23:55;;;;;;;2.03;1.37;;;7.70;99.90;;;;;;4369573;32;20066;-66
2021/11/14 03:26:22;;;;;;;4.15;1.35;;;7.70;99.90;;;;;;4361602;32;20066;-67
2021/11/14 03:28:47;;;;;;;2.28;1.67;;;7.70;99.90;;;;;;4366835;32;20079;-67
2021/11/14 03:31:13;;;;;;;3.15;1.87;;;7.70;99.90;;;;;;4360972;32;20089;-66
2021/11/14 03:33:40;;;;;;;1.42;1.25;;;7.60;99.90;;;;;;4360902;32;20399;-68
2021/11/14 03:36:10;;;;;;;3.12;1.90;;;7.60;99.90;;;;;;4364262;32;20558;-67
2021/11/14 03:38:55;;;;;;;4.75;2.87;;;7.60;99.90;;;;;;4363297;32;20066;-67
2021/11/14 03:41:26;;;;;;;2.08;1.27;;;7.70;99.90;;;;;;4351763;32;20126;-67
2021/11/14 03:43:51;;;;;;;;;;;7.70;99.90;;;;;;4371811;32;20075;-67
2021/11/14 03:46:17;;;;;;;1.45;1.23;;;7.70;99.90;;;;;;4366319;32;19961;-66
2021/11/14 03:48:46;;;;;;;2.97;1.95;;;7.80;99.90;;;;;;4369689;32;20121;-66
2021/11/14 03:51:13;;;;;;;3.22;1.85;;;7.70;99.90;;;;;;4361213;32;20104;-67
2021/11/14 03:53:39;;;;;;;1.77;1.67;;;7.80;99.90;;;;;;4360806;32;20091;-67
2021/11/14 03:56:05;;;;;;;4.15;2.55;;;7.80;99.90;;;;;;4347064;32;20087;-67
2021/11/14 03:58:31;;;;;;;2.95;1.95;;;7.90;99.90;;;;;;4362221;32;20107;-67
2021/11/14 04:01:00;;;;;;;1.37;1.27;;;7.90;99.90;;;;;;4363092;32;20134;-67
2021/11/14 04:03:27;;;;;;;6.78;2.33;;;7.80;99.90;;;;;;4365402;32;20556;-66
2021/11/14 04:05:53;;;;;;;2.62;1.00;;;7.70;99.90;;;;;;4359383;32;20071;-66
2021/11/14 04:08:21;;;;;;;4.80;2.20;;;7.70;99.90;;;;;;4359125;32;20098;-66
2021/11/14 04:10:48;;;;;;;3.97;1.62;;;7.70;99.90;;;;;;4360792;32;20082;-66
2021/11/14 04:13:14;;;;;;;1.58;1.45;;;7.70;99.90;;;;;;4364074;32;20070;-67
2021/11/14 04:15:41;;;;;;;2.33;1.92;;;7.70;99.90;;;;;;4351000;32;20094;-66
2021/11/14 04:18:07;;;;;;;9.63;2.35;;;7.70;99.90;;;;;;4362901;32;20071;-66
2021/11/14 04:20:35;;;;;;;6.37;2.03;;;7.70;99.90;;;;;;4362921;32;20070;-66
2021/11/14 04:23:02;;;;;;;1.80;1.62;;;7.60;99.90;;;;;;4359755;32;20078;-66
2021/11/14 04:25:28;;;;;;;3.03;1.95;;;7.60;99.90;;;;;;4363009;32;20397;-66
2021/11/14 04:27:55;;;;;;;3.60;1.83;;;7.50;99.90;;;;;;4366364;32;20571;-66
2021/11/14 04:30:20;;;;;;;1.75;1.65;;;7.50;99.90;;;;;;4360570;32;20066;-66
2021/11/14 04:32:46;;;;;;;3.60;1.77;;;7.60;99.90;;;;;;4358762;32;100134;-66
2021/11/14 04:35:13;;;;;;;2.28;1.67;;;7.60;99.90;;;;;;4361663;32;20099;-66
2021/11/14 04:37:40;;;;;;;8.63;1.70;;;7.50;99.90;;;;;;4360854;32;20071;-67
2021/11/14 04:40:08;;;;;;;1.55;1.35;;;7.50;99.90;;;;;;4363709;32;20067;-67
2021/11/14 04:42:33;;;;;;;6.70;2.12;;;7.50;99.90;;;;;;4361742;32;20132;-66
2021/11/14 04:44:59;;;;;;;5.35;1.90;;;7.60;99.90;;;;;;4364152;32;20078;-66
2021/11/14 04:47:25;;;;;;;2.40;1.75;;;7.60;99.90;;;;;;4362473;32;20079;-67
2021/11/14 04:49:51;;;;;;;6.97;2.28;;;7.60;99.90;;;;;;4359865;32;20161;-67
2021/11/14 04:52:17;;;;;;;3.70;2.12;;;7.60;99.90;;;;;;4362074;32;20063;-67
2021/11/14 04:54:42;;;;;;;1.25;1.15;;;7.60;99.90;;;;;;4371099;32;20313;-67
2021/11/14 04:57:08;;;;;;;2.87;1.62;;;7.60;99.90;;;;;;4361008;32;20442;-66
2021/11/14 04:59:33;;;;;;;1.85;1.50;;;7.70;99.90;;;;;;4360093;32;20100;-67
2021/11/14 05:01:59;;;;;;;1.17;0.93;;;7.70;99.90;;;;;;4365663;32;20548;-67
2021/11/14 05:04:26;;;;;;;8.13;2.62;;;7.70;99.90;;;;;;4359233;32;20514;-67
2021/11/14 05:06:52;;;;;;;2.67;1.52;;;7.60;99.90;;;;;;4369421;32;20074;-67
2021/11/14 05:09:17;;;;;;;3.35;2.10;;;7.60;99.90;;;;;;4372000;32;20086;-66
2021/11/14 05:11:43;;;;;;;3.85;1.85;;;7.60;99.90;;;;;;4363635;32;20078;-67
2021/11/14 05:14:08;;;;;;;4.20;2.47;;;7.60;99.90;;;;;;4365375;32;20547;-66
2021/11/14 05:16:34;;;;;;;0.98;0.93;;;7.50;99.90;;;;;;4362714;32;20102;-67
2021/11/14 05:18:59;;;;;;;25.48;1.45;;;7.60;99.90;;;;;;4364253;32;20084;-67
2021/11/14 05:21:25;;;;;;;3.25;1.90;;;7.60;99.90;;;;;;4364696;32;20067;-67
2021/11/14 05:23:51;;;;;;;0.85;0.82;;;7.70;99.90;;;;;;4366209;32;20106;-67
2021/11/14 05:26:17;;;;;;;2.25;1.30;;;7.70;99.90;;;;;;4361187;32;20067;-66
2021/11/14 05:28:43;;;;;;;2.42;1.37;;;7.70;99.90;;;;;;4366650;32;20082;-66
2021/11/14 05:31:08;;;;;;;4.95;1.87;;;7.60;99.90;;;;;;4371578;32;20103;-67
2021/11/14 05:33:34;;;;;;;5.70;1.83;;;7.60;99.90;;;;;;4364055;32;20066;-67
2021/11/14 05:36:00;;;;;;;2.03;1.60;;;7.70;99.90;;;;;;4365445;32;20091;-66
2021/11/14 05:38:26;;;;;;;2.62;1.23;;;7.70;99.90;;;;;;4374618;32;20531;-67
2021/11/14 05:40:51;;;;;;;2.50;1.05;;;7.60;99.90;;;;;;4365394;32;20095;-67
2021/11/14 05:43:17;;;;;;;3.20;1.87;;;7.60;99.90;;;;;;4365048;32;20516;-66
2021/11/14 05:45:43;;;;;;;8.73;2.53;;;7.50;99.90;;;;;;4364665;32;20099;-67
2021/11/14 05:48:10;;;;;;;1.20;1.02;;;7.50;99.90;;;;;;4364944;32;21317;-66
2021/11/14 05:50:36;;;;;;;1.52;1.30;;;7.50;99.90;;;;;;4366697;32;20118;-67
2021/11/14 05:53:03;;;;;;;1.55;1.25;;;7.50;99.90;;;;;;4363989;32;20075;-67
2021/11/14 05:55:28;;;;;;;1.17;0.75;;;7.50;99.90;;;;;;4365435;32;20079;-67
2021/11/14 05:57:57;;;;;;;2.80;1.48;;;7.50;99.90;;;;;;4369668;32;20078;-66
2021/11/14 06:00:32;;;;;;;3.00;2.03;;;7.50;99.90;;;;;;4360625;32;20071;-66
2021/11/14 06:03:35;;;;;;;1.85;1.23;;;7.50;99.90;;;;;;4364976;32;20198;-67
2021/11/14 06:05:45;;;;;;;2.03;1.58;;;7.60;99.90;;;;;;4349000;32;20482;-65
2021/11/14 06:08:11;;;;;;;2.12;1.58;;;7.70;99.90;;;;;;4363654;32;20110;-66
2021/11/14 06:10:37;;;;;;;0.80;0.80;;;7.70;99.90;;;;;;4358598;32;20066;-66
2021/11/14 06:13:03;;;;;;;2.53;1.77;;;7.70;99.90;;;;;;4365999;32;20155;-67
2021/11/14 06:15:29;;;;;;;1.95;1.45;;;7.80;99.90;;;;;;4360592;32;20091;-66
2021/11/14 06:17:55;;;;;;;6.65;2.12;;;7.70;99.90;;;;;;4373277;32;20081;-66
2021/11/14 06:20:22;;;;;;;2.42;1.62;;;7.70;99.90;;;;;;4364625;32;20465;-66
2021/11/14 06:22:48;;;;;;;1.73;1.30;;;7.70;99.90;;;;;;4364189;32;20082;-67
2021/11/14 06:25:13;;;;;;;1.83;0.90;;;7.60;99.90;;;;;;4361552;32;20163;-66
2021/11/14 06:27:39;;;;;;;4.47;1.05;;;7.50;99.90;;;;;;4362795;32;20447;-66
2021/11/14 06:30:10;;;;;;;1.65;1.20;;;7.60;99.90;;;;;;4364430;32;20079;-67
2021/11/14 06:32:36;;;;;;;;;;;7.70;99.90;;;;;;4365085;32;20160;-66
2021/11/14 06:35:02;;;;;;;1.73;1.10;;;7.70;99.90;;;;;;4361269;32;19959;-67
2021/11/14 06:37:28;;;;;;;1.42;1.30;;;7.80;99.90;;;;;;4368371;32;20142;-67
2021/11/14 06:39:54;;;;;;;2.17;1.30;;;7.80;99.90;;;;;;4365331;32;20095;-67
2021/11/14 06:42:19;;;;;;;10.20;2.60;;;7.80;99.90;;;;;;4361024;32;20171;-66
2021/11/14 06:44:45;;;;;;;1.27;1.10;;;7.70;99.90;;;;;;4367709;32;20063;-67
2021/11/14 06:47:12;;;;;;;0.85;0.85;;;7.60;99.90;;;;;;4363441;32;20066;-67
2021/11/14 06:49:38;;;;;;;1.70;1.30;;;7.60;99.90;;;;;;4364920;32;20085;-66
2021/11/14 06:52:04;;;;;;;0.85;0.85;;;7.60;99.90;;;;;;4363583;32;20155;-67
2021/11/14 06:54:29;;;;;;;1.60;1.40;;;7.80;99.90;;;;;;4364339;32;20143;-67
2021/11/14 06:56:55;;;;;;;4.10;1.83;;;7.80;99.90;;;;;;4363221;32;20074;-67
2021/11/14 06:59:21;;;;;;;2.90;1.62;;;7.80;99.90;;;;;;4359626;32;21275;-67
2021/11/14 07:01:46;;;;;;;0.80;0.80;;;7.70;99.90;;;;;;4369052;32;20074;-66
2021/11/14 07:04:12;;;;;;;1.85;1.08;;;7.60;99.90;;;;;;4364895;32;20074;-67
2021/11/14 07:06:37;;;;;;;1.25;1.00;;;7.60;99.90;;;;;;4365065;32;20126;-66
2021/11/14 07:09:04;;;;;;;1.40;1.23;;;7.60;99.90;;;;;;4363671;32;20816;-66
2021/11/14 07:11:30;;;;;;;0.80;0.80;;;7.70;99.90;;;;;;4364937;32;20063;-67
2021/11/14 07:13:55;;;;;;;1.15;0.98;;;7.80;99.90;;;;;;4366469;32;20095;-66
2021/11/14 07:16:21;;;;;;;3.62;1.60;;;7.80;99.90;;;;;;4359938;32;20522;-66
2021/11/14 07:18:47;;;;;;;0.95;0.95;;;7.80;99.90;;;;;;4364068;32;20072;-66
2021/11/14 07:21:12;;;;;;;1.05;0.95;;;7.80;99.90;;;;;;4363290;32;20552;-66
2021/11/14 07:23:38;;;;;;;7.65;1.65;;;7.80;99.90;;;;;;4363607;32;20058;-66
2021/11/14 07:26:04;;;;;;;1.02;0.73;;;7.80;99.90;;;;;;4367638;32;20070;-66
2021/11/14 07:28:29;;;;;;;1.55;1.20;;;7.80;99.90;;;;;;4350746;32;20090;-66
2021/11/14 07:30:55;;;;;;;3.42;1.65;;;7.70;99.90;;;;;;4366361;32;20063;-65
2021/11/14 07:33:20;;;;;;;3.72;1.50;;;7.80;99.90;;;;;;4371734;32;20130;-65
2021/11/14 07:35:46;;;;;;;1.15;0.85;;;7.80;99.90;;;;;;4365943;32;20067;-65
2021/11/14 07:38:11;;;;;;;3.28;1.70;;;7.70;99.90;;;;;;4366328;32;20159;-66
2021/11/14 07:40:37;;;;;;;3.70;1.77;;;7.60;99.90;;;;;;4367229;32;20104;-66
2021/11/14 07:43:03;;;;;;;3.62;1.62;;;7.50;99.90;;;;;;4370498;32;20083;-66
2021/11/14 07:45:29;;;;;;;2.47;1.75;;;7.50;99.90;;;;;;4361933;32;20438;-65
2021/11/14 07:47:55;;;;;;;5.53;1.90;;;7.50;99.90;;;;;;4370605;32;20110;-66
2021/11/14 07:50:23;;;;;;;3.78;2.28;;;7.40;99.90;;;;;;4359529;32;20473;-66
2021/11/14 07:52:49;;;;;;;15.43;2.97;;;7.40;99.90;;;;;;4364153;32;20086;-66
2021/11/14 07:55:15;;;;;;;5.10;2.10;;;7.40;99.90;;;;;;4368729;32;20090;-66
2021/11/14 07:57:43;;;;;;;3.03;1.55;;;7.40;99.90;;;;;;4363087;32;20051;-66
2021/11/14 08:00:13;;;;;;;3.00;1.08;;;7.50;99.90;;;;;;4359898;32;20138;-65
2021/11/14 08:02:39;;;;;;;13.50;4.12;;;7.40;99.90;;;;;;4358920;32;20087;-65
2021/11/14 08:05:05;;;;;;;5.07;1.92;;;7.40;99.90;;;;;;4359312;32;20404;-65
2021/11/14 08:07:30;;;;;;;3.72;2.28;;;7.40;99.90;;;;;;4362029;32;20746;-65
2021/11/14 08:09:56;;;;;;;4.10;1.77;;;7.40;99.90;;;;;;4358070;32;20066;-66
2021/11/14 08:12:21;;;;;;;0.82;0.82;;;7.40;99.90;;;;;;4363558;32;20090;-65
2021/11/14 08:14:49;;;;;;;10.40;1.77;;;7.40;99.90;;;;;;4367851;32;20419;-66
2021/11/14 08:17:14;;;;;;;2.80;1.50;;;7.40;99.90;;;;;;4363155;32;20058;-66
2021/11/14 08:19:40;;;;;;;7.30;2.85;;;7.40;99.90;;;;;;4364653;32;20126;-66
2021/11/14 08:22:05;;;;;;;9.07;1.08;;;7.40;99.90;;;;;;4366070;32;20126;-66
2021/11/14 08:24:31;;;;;;;3.25;2.05;;;7.40;99.90;;;;;;4366555;32;20488;-66
2021/11/14 08:26:56;;;;;;;5.20;1.37;;;7.40;99.90;;;;;;4365416;32;20079;-66
2021/11/14 08:29:22;;;;;;;2.08;1.25;;;7.50;99.90;;;;;;4360665;32;20071;-65
2021/11/14 08:31:48;;;;;;;5.93;3.35;;;7.50;99.90;;;;;;4364116;32;20087;-65
2021/11/14 08:34:13;;;;;;;3.00;1.65;;;7.50;99.90;;;;;;4358081;32;20087;-65
2021/11/14 08:36:39;;;;;;;6.43;1.62;;;7.50;99.90;;;;;;4363995;32;20083;-66
2021/11/14 08:39:04;;;;;;;5.65;2.47;;;7.50;99.90;;;;;;4364494;32;20075;-66
2021/11/14 08:41:30;;;;;;;1.35;1.08;;;7.50;99.90;;;;;;4362768;32;20226;-66
2021/11/14 08:43:55;;;;;;;6.47;2.00;;;7.50;99.90;;;;;;4361614;32;20155;-66
2021/11/14 08:46:21;;;;;;;2.20;1.73;;;7.50;99.90;;;;;;4362591;32;20059;-66
2021/11/14 08:48:47;;;;;;;8.93;2.42;;;7.50;99.90;;;;;;4362853;32;20177;-65
2021/11/14 08:51:12;;;;;;;1.48;1.37;;;7.60;99.90;;;;;;4365622;32;20508;-66
2021/11/14 08:53:38;;;;;;;2.33;1.62;;;7.60;99.90;;;;;;4357551;32;20141;-66
2021/11/14 08:56:04;;;;;;;1.67;1.25;;;7.60;99.90;;;;;;4363281;32;20118;-65
2021/11/14 08:58:34;;;;;;;8.57;2.17;;;7.60;99.90;;;;;;4364587;32;20079;-65
2021/11/14 09:01:01;;;;;;;2.20;1.67;;;7.60;99.90;;;;;;4364883;32;20119;-65
2021/11/14 09:03:27;;;;;;;3.33;2.03;;;7.60;99.90;;;;;;4366334;32;20091;-65
2021/11/14 09:05:52;;;;;;;2.53;1.83;;;7.60;99.90;;;;;;4365377;32;20166;-65
2021/11/14 09:08:18;;;;;;;2.92;1.85;;;7.80;99.90;;;;;;4365754;32;20449;-65
2021/11/14 09:10:44;;;;;;;16.42;2.67;;;8.10;99.90;;;;;;4363427;32;20154;-65
2021/11/14 09:13:11;;;;;;;11.43;2.83;;;8.30;99.90;;;;;;4364654;32;20144;-65
2021/11/14 09:15:37;;;;;;;9.02;2.20;;;8.50;99.90;;;;;;4361045;32;20083;-65
2021/11/14 09:18:03;;;;;;;7.03;2.45;;;8.40;99.90;;;;;;4366779;32;20075;-65
2021/11/14 09:20:28;;;;;;;3.55;1.42;;;8.40;99.90;;;;;;4365681;32;20084;-66
2021/11/14 09:22:55;;;;;;;6.07;2.72;;;8.20;99.90;;;;;;4362510;32;20154;-65
2021/11/14 09:25:21;;;;;;;14.70;2.55;;;8.00;99.90;;;;;;4363392;32;20587;-66
2021/11/14 09:27:48;;;;;;;2.50;1.37;;;7.90;99.90;;;;;;4367075;32;20860;-66
2021/11/14 09:30:15;;;;;;;2.28;1.80;;;7.90;99.90;;;;;;4367490;32;20074;-65
2021/11/14 09:32:41;;;;;;;3.12;2.08;;;7.90;99.90;;;;;;4366788;32;20087;-66
2021/11/14 09:35:07;;;;;;;7.70;1.98;;;7.90;99.90;;;;;;4373020;32;20167;-66
2021/11/14 09:37:33;;;;;;;5.03;2.28;;;7.90;99.90;;;;;;4367392;32;20074;-65
2021/11/14 09:39:58;;;;;;;3.37;2.12;;;7.80;99.90;;;;;;4353229;32;20133;-65
2021/11/14 09:42:26;;;;;;;5.82;2.95;;;7.80;99.90;;;;;;4358849;32;20087;-66
2021/11/14 09:44:52;;;;;;;3.80;2.62;;;7.80;99.90;;;;;;4368553;32;20075;-66
2021/11/14 09:47:18;;;;;;;7.15;2.58;;;7.70;99.90;;;;;;4362042;32;20075;-65
2021/11/14 09:49:44;;;;;;;2.50;1.98;;;7.80;99.90;;;;;;4365730;32;20505;-65
2021/11/14 09:52:10;;;;;;;9.77;1.58;;;7.80;99.90;;;;;;4360246;32;20071;-66
2021/11/14 09:54:38;;;;;;;9.30;3.17;;;7.90;99.90;;;;;;4363249;32;20113;-66
2021/11/14 09:57:04;;;;;;;14.02;2.33;;;7.90;99.90;;;;;;4365847;32;20080;-67
2021/11/14 09:59:29;;;;;;;6.40;2.05;;;8.00;99.90;;;;;;4355911;32;20063;-67
2021/11/14 10:02:00;;;;;;;7.37;2.17;;;8.00;99.90;;;;;;4364918;32;20110;-67
2021/11/14 10:04:25;;;;;;;;;;;8.10;99.90;;;;;;4361320;32;20063;-67
2021/11/14 10:07:00;;;;;;;3.72;2.37;;;8.00;99.90;;;;;;4361491;32;19950;-67
2021/11/14 10:09:29;;;;;;;4.18;2.35;;;8.00;99.90;;;;;;4366320;32;20480;-67
2021/11/14 10:11:55;;;;;;;3.83;2.10;;;8.10;99.90;;;;;;4364110;32;20083;-67
2021/11/14 10:14:24;;;;;;;7.28;2.45;;;8.10;99.90;;;;;;4366661;32;20435;-67
2021/11/14 10:16:50;;;;;;;4.57;1.80;;;8.20;99.90;;;;;;4361249;32;20082;-67
2021/11/14 10:19:15;;;;;;;4.85;2.15;;;8.20;99.90;;;;;;4365449;32;20091;-67
2021/11/14 10:21:45;;;;;;;3.58;1.75;;;8.20;99.90;;;;;;4361429;32;20129;-67
2021/11/14 10:24:11;;;;;;;4.93;1.90;;;8.30;99.90;;;;;;4353260;32;20054;-68
2021/11/14 10:26:39;;;;;;;15.23;2.78;;;8.20;99.90;;;;;;4371285;32;20108;-67
2021/11/14 10:29:11;;;;;;;6.37;2.90;;;8.20;99.90;;;;;;4362220;32;20087;-67
2021/11/14 10:31:38;;;;;;;1.83;1.67;;;8.30;99.90;;;;;;4366086;32;20090;-67
2021/11/14 10:34:04;;;;;;;7.15;2.50;;;8.30;99.90;;;;;;4353647;32;20142;-68
2021/11/14 10:36:32;;;;;;;10.50;2.60;;;8.20;99.90;;;;;;4363409;32;20075;-67
2021/11/14 10:39:01;;;;;;;1.87;1.33;;;8.30;99.90;;;;;;4362729;32;20121;-68
2021/11/14 10:41:28;;;;;;;6.05;2.45;;;8.40;99.90;;;;;;4363377;32;20085;-67
2021/11/14 10:44:09;;;;;;;8.32;2.30;;;8.40;99.90;;;;;;4363383;32;20536;-67
2021/11/14 10:46:37;;;;;;;4.97;1.60;;;8.40;99.90;;;;;;4365169;32;20059;-67
2021/11/14 10:49:04;;;;;;;5.03;2.60;;;8.40;99.90;;;;;;4364215;32;20474;-67
2021/11/14 10:51:30;;;;;;;3.92;1.95;;;8.20;99.90;;;;;;4362447;32;20173;-67
2021/11/14 10:53:55;;;;;;;3.42;2.33;;;8.10;99.90;;;;;;4361438;32;20126;-67
2021/11/14 10:56:21;;;;;;;7.47;2.62;;;8.10;99.90;;;;;;4361301;32;20074;-68
2021/11/14 10:58:46;;;;;;;7.07;3.33;;;8.20;99.90;;;;;;4363624;32;20062;-68
2021/11/14 11:01:15;;;;;;;5.35;2.08;;;8.20;99.90;;;;;;4365801;32;20203;-68
2021/11/14 11:03:47;;;;;;;9.63;1.98;;;8.20;99.90;;;;;;4363810;32;20161;-68
2021/11/14 11:06:19;;;;;;;5.82;3.40;;;8.30;99.90;;;;;;4361896;32;20066;-68
2021/11/14 11:08:46;;;;;;;15.07;2.75;;;8.20;99.90;;;;;;4367264;32;20066;-68
2021/11/14 11:11:11;;;;;;;7.28;2.37;;;8.30;99.90;;;;;;4362230;32;20059;-68
2021/11/14 11:13:41;;;;;;;8.15;3.33;;;8.30;99.90;;;;;;4364190;32;20091;-68
2021/11/14 11:16:09;;;;;;;2.95;2.30;;;8.30;99.90;;;;;;4365874;32;20090;-68
2021/11/14 11:18:35;;;;;;;5.37;2.55;;;8.40;99.90;;;;;;4365279;32;20530;-67
2021/11/14 11:21:04;;;;;;;5.70;2.17;;;8.50;99.90;;;;;;4362939;32;20058;-67
2021/11/14 11:23:30;;;;;;;19.50;5.00;;;8.50;99.90;;;;;;4360355;32;20058;-67
2021/11/14 11:26:01;;;;;;;2.58;1.98;;;8.50;99.90;;;;;;4355194;32;20098;-68
2021/11/14 11:28:31;;;;;;;8.52;2.33;;;8.50;99.90;;;;;;4359891;32;20074;-68
2021/11/14 11:31:01;;;;;;;6.75;2.60;;;8.60;99.90;;;;;;4359962;32;20087;-67
2021/11/14 11:33:32;;;;;;;7.50;2.35;;;8.60;99.90;;;;;;4368616;32;20532;-68
2021/11/14 11:35:58;;;;;;;32.97;2.72;;;8.70;99.90;;;;;;4363860;32;20138;-67
2021/11/14 11:38:25;;;;;;;5.95;3.80;;;8.70;99.90;;;;;;4366082;32;20146;-68
2021/11/14 11:40:53;;;;;;;11.30;3.85;;;8.80;99.90;;;;;;4361985;32;20165;-68
2021/11/14 11:43:18;;;;;;;3.78;2.28;;;8.90;99.90;;;;;;4360190;32;20094;-68
2021/11/14 11:45:46;;;;;;;16.33;2.87;;;8.80;99.90;;;;;;4363050;32;20138;-68
2021/11/14 11:48:19;;;;;;;8.82;2.87;;;8.90;99.90;;;;;;4367701;32;20143;-68
2021/11/14 11:50:45;;;;;;;6.22;3.62;;;8.90;99.90;;;;;;4368812;32;20107;-68
2021/11/14 11:53:27;;;;;;;3.78;1.95;;;8.80;99.90;;;;;;4349336;32;20067;-68
2021/11/14 11:56:11;;;;;;;7.40;3.12;;;8.80;99.90;;;;;;4365607;32;20110;-68
2021/11/14 11:58:41;;;;;;;2.70;2.37;;;8.90;99.90;;;;;;4352958;32;20099;-68
2021/11/14 12:01:23;;;;;;;6.45;2.08;;;8.90;99.90;;;;;;4347929;32;20533;-68
2021/11/14 12:03:49;;;;;;;5.22;2.87;;;8.90;99.90;;;;;;4362879;32;20062;-68
2021/11/14 12:06:17;;;;;;;6.32;3.50;;;8.70;99.90;;;;;;4363097;32;21361;-67
2021/11/14 12:08:46;;;;;;;9.95;2.95;;;8.70;99.90;;;;;;4367812;32;20536;-67
2021/11/14 12:11:25;;;;;;;49.22;4.75;;;8.70;99.90;;;;;;4355658;32;20131;-67
2021/11/14 12:13:50;;;;;;;10.57;3.33;;;8.70;99.90;;;;;;4363043;32;20427;-68
2021/11/14 12:16:25;;;;;;;23.17;4.25;;;8.80;99.90;;;;;;4360560;32;20082;-68
2021/11/14 12:18:51;;;;;;;8.02;3.70;;;8.80;99.90;;;;;;4352968;32;20063;-68
2021/11/14 12:21:20;;;;;;;10.38;3.30;;;8.80;99.90;;;;;;4363093;32;20302;-68
2021/11/14 12:23:54;;;;;;;15.27;3.53;;;8.80;99.90;;;;;;4358912;32;20074;-68
2021/11/14 12:26:26;;;;;;;8.55;3.67;;;8.80;99.90;;;;;;4364192;32;20087;-67
2021/11/14 12:28:54;;;;;;;12.50;4.43;;;8.70;99.90;;;;;;4360597;32;20489;-68
2021/11/14 12:31:25;;;;;;;7.12;3.00;;;8.70;99.90;;;;;;4369726;32;20078;-68
2021/11/14 12:33:53;;;;;;;;;;;8.70;99.90;;;;;;4357869;32;20078;-69
2021/11/14 12:36:22;;;;;;;21.08;2.37;;;8.80;99.90;;;;;;4363040;32;20463;-69
2021/11/14 12:38:49;;;;;;;4.53;2.80;;;8.70;99.90;;;;;;4363329;32;20067;-68
2021/11/14 12:41:16;;;;;;;7.07;3.42;;;8.70;99.90;;;;;;4369314;32;20410;-67
2021/11/14 12:43:46;;;;;;;7.78;3.67;;;8.70;99.90;;;;;;4367977;32;21303;-68
2021/11/14 12:46:21;;;;;;;22.58;2.92;;;8.80;99.90;;;;;;4352518;32;20066;-68
2021/11/14 12:48:47;;;;;;;15.68;4.75;;;8.80;99.90;;;;;;4358628;32;20132;-68
2021/11/14 12:51:18;;;;;;;5.15;1.87;;;8.70;99.90;;;;;;4364543;32;20071;-68
2021/11/14 12:53:51;;;;;;;16.15;2.47;;;8.80;99.90;;;;;;4364821;32;20111;-68
2021/11/14 12:56:28;;;;;;;8.02;3.78;;;8.70;99.90;;;;;;4366053;32;20427;-67